Time;durP1;ratioP1;P1;durP2;ratioP2;P2;SDS_P1;SDS_P2;PMS_P1;PMS_P2;Temp;Humidity;BMP_temperature;BMP_pressure;BME280_temperature;BME280_humidity;BME280_pressure;Samples;Min_cycle;Max_cycle;Signal;HPM_P1;HPM_P2
2021/04/06 00:00:50;;;;;;;1.45;0.80;;;20.40;39.80;;;;;;5015389;28;20427;-70
2021/04/06 00:03:17;;;;;;;1.20;0.93;;;20.40;39.60;;;;;;5007017;28;20415;-70
2021/04/06 00:05:43;;;;;;;1.60;0.90;;;20.50;39.60;;;;;;5014165;28;20477;-70
2021/04/06 00:08:10;;;;;;;2.00;0.88;;;20.50;39.40;;;;;;5019717;28;20435;-70
2021/04/06 00:10:39;;;;;;;2.00;1.00;;;20.50;39.50;;;;;;5031009;28;20449;-70
2021/04/06 00:13:05;;;;;;;2.03;1.10;;;20.50;39.60;;;;;;5029847;28;20417;-70
2021/04/06 00:15:32;;;;;;;2.10;0.73;;;20.50;39.50;;;;;;5008380;28;20421;-69
2021/04/06 00:18:00;;;;;;;1.88;1.00;;;20.40;39.50;;;;;;5017971;28;20497;-70
2021/04/06 00:20:28;;;;;;;0.90;0.80;;;20.40;39.40;;;;;;5020849;28;20441;-70
2021/04/06 00:22:54;;;;;;;2.00;1.10;;;20.40;39.60;;;;;;5001638;28;20422;-71
2021/04/06 00:25:21;;;;;;;2.45;0.85;;;20.30;39.50;;;;;;5025633;28;21054;-70
2021/04/06 00:27:48;;;;;;;2.20;0.88;;;20.30;39.60;;;;;;5023056;28;20419;-71
2021/04/06 00:30:16;;;;;;;1.70;0.82;;;20.30;39.60;;;;;;5024901;28;20423;-72
2021/04/06 00:32:42;;;;;;;1.50;1.00;;;20.30;39.60;;;;;;5025973;28;20407;-71
2021/04/06 00:35:09;;;;;;;2.90;0.82;;;20.30;39.60;;;;;;5025217;28;20409;-70
2021/04/06 00:37:47;;;;;;;1.27;0.90;;;20.30;39.50;;;;;;5021587;28;20430;-73
2021/04/06 00:40:14;;;;;;;1.38;0.85;;;20.30;39.50;;;;;;5023468;28;20511;-71
2021/04/06 00:42:41;;;;;;;1.30;0.70;;;20.40;39.40;;;;;;5023890;28;20409;-70
2021/04/06 00:45:09;;;;;;;1.77;0.77;;;20.40;39.20;;;;;;5023822;28;20410;-71
2021/04/06 00:47:36;;;;;;;2.00;0.90;;;20.40;39.30;;;;;;5025745;28;20980;-71
2021/04/06 00:50:04;;;;;;;1.20;0.90;;;20.40;39.20;;;;;;5017086;28;20485;-70
2021/04/06 00:52:30;;;;;;;1.75;1.05;;;20.40;39.20;;;;;;5048597;28;20425;-75
2021/04/06 00:54:56;;;;;;;1.35;0.80;;;20.30;39.20;;;;;;5037793;28;20404;-72
2021/04/06 00:57:23;;;;;;;1.52;0.90;;;20.30;39.20;;;;;;5041863;28;20410;-72
2021/04/06 01:00:12;;;;;;;2.00;0.70;;;20.30;39.30;;;;;;5036325;28;20418;-69
2021/04/06 01:02:39;;;;;;;1.00;0.80;;;20.30;39.40;;;;;;5019292;28;20444;-71
2021/04/06 01:05:06;;;;;;;1.45;0.80;;;20.30;39.30;;;;;;5015332;28;20417;-72
2021/04/06 01:07:33;;;;;;;0.70;0.50;;;20.20;39.30;;;;;;5022076;28;20540;-70
2021/04/06 01:10:00;;;;;;;1.40;0.90;;;20.20;39.30;;;;;;5012369;28;20422;-70
2021/04/06 01:12:27;;;;;;;0.80;0.70;;;20.20;39.30;;;;;;5015930;28;20419;-71
2021/04/06 01:14:54;;;;;;;1.00;0.60;;;20.30;39.50;;;;;;5026001;28;20421;-70
2021/04/06 01:17:24;;;;;;;3.20;0.90;;;20.30;39.40;;;;;;5014450;28;20418;-73
2021/04/06 01:19:50;;;;;;;0.82;0.73;;;20.30;39.30;;;;;;5004026;28;20407;-70
2021/04/06 01:22:17;;;;;;;1.48;0.63;;;20.30;39.30;;;;;;5015984;28;20412;-71
2021/04/06 01:24:44;;;;;;;2.03;0.90;;;20.30;39.20;;;;;;5019631;28;21587;-72
2021/04/06 01:27:13;;;;;;;1.10;0.85;;;20.30;39.30;;;;;;5027010;28;20436;-69
2021/04/06 01:29:39;;;;;;;1.33;0.60;;;20.30;39.20;;;;;;5022930;28;21464;-72
2021/04/06 01:32:06;;;;;;;1.92;0.95;;;20.30;39.30;;;;;;5025109;28;20401;-71
2021/04/06 01:34:32;;;;;;;1.50;0.60;;;20.20;39.20;;;;;;5025670;28;20438;-71
2021/04/06 01:36:58;;;;;;;2.05;0.60;;;20.20;39.20;;;;;;5022101;28;20701;-70
2021/04/06 01:39:25;;;;;;;1.73;0.70;;;20.20;39.20;;;;;;5022377;28;20414;-71
2021/04/06 01:41:56;;;;;;;2.80;0.70;;;20.20;39.20;;;;;;5015923;28;20425;-70
2021/04/06 01:44:22;;;;;;;0.65;0.60;;;20.20;39.20;;;;;;5009292;28;20413;-70
2021/04/06 01:46:48;;;;;;;1.20;0.60;;;20.20;39.30;;;;;;5024401;28;21173;-72
2021/04/06 01:49:14;;;;;;;1.98;0.80;;;20.20;39.20;;;;;;5025833;28;21140;-72
2021/04/06 01:51:41;;;;;;;2.40;1.00;;;20.20;39.40;;;;;;5025758;28;20422;-71
2021/04/06 01:54:08;;;;;;;1.90;0.60;;;20.20;39.20;;;;;;5023291;28;21145;-71
2021/04/06 01:56:40;;;;;;;4.45;0.80;;;20.20;39.20;;;;;;5029154;28;20500;-70
2021/04/06 01:59:11;;;;;;;1.80;0.60;;;20.20;39.20;;;;;;5026425;28;20794;-69
2021/04/06 02:01:38;;;;;;;1.50;0.80;;;20.20;39.20;;;;;;5028581;28;20427;-71
2021/04/06 02:04:05;;;;;;;3.10;0.80;;;20.20;39.10;;;;;;5018051;28;20417;-71
2021/04/06 02:06:35;;;;;;;1.20;0.70;;;20.20;39.00;;;;;;5030651;28;20445;-70
2021/04/06 02:09:01;;;;;;;2.17;0.80;;;20.20;39.10;;;;;;5027077;28;20412;-72
2021/04/06 02:11:28;;;;;;;1.00;0.90;;;20.30;39.10;;;;;;5033242;28;20431;-71
2021/04/06 02:14:03;;;;;;;1.98;0.50;;;20.20;38.90;;;;;;5025194;28;20438;-72
2021/04/06 02:16:41;;;;;;;1.00;0.50;;;20.20;39.80;;;;;;5022764;28;20484;-72
2021/04/06 02:19:07;;;;;;;3.58;0.77;;;20.20;39.00;;;;;;5028989;28;20409;-70
2021/04/06 02:21:33;;;;;;;0.77;0.60;;;20.20;38.90;;;;;;5028146;28;20410;-71
2021/04/06 02:23:59;;;;;;;1.50;0.70;;;20.20;39.10;;;;;;5025914;28;20437;-71
2021/04/06 02:26:26;;;;;;;0.70;0.70;;;20.20;38.90;;;;;;5014495;28;21570;-72
2021/04/06 02:28:53;;;;;;;2.72;0.80;;;20.20;38.90;;;;;;5032311;28;20421;-70
2021/04/06 02:31:19;;;;;;;1.90;0.80;;;20.20;39.00;;;;;;5026941;28;21278;-69
2021/04/06 02:33:46;;;;;;;1.30;0.85;;;20.20;38.90;;;;;;5018521;28;20516;-70
2021/04/06 02:36:12;;;;;;;1.00;0.70;;;20.20;39.00;;;;;;5018098;28;20463;-69
2021/04/06 02:38:39;;;;;;;0.75;0.60;;;20.20;38.90;;;;;;5019610;28;20425;-70
2021/04/06 02:41:07;;;;;;;1.10;0.70;;;20.20;38.90;;;;;;5031528;28;20422;-70
2021/04/06 02:43:53;;;;;;;0.90;0.75;;;20.10;39.00;;;;;;5019367;28;20463;-71
2021/04/06 02:46:20;;;;;;;0.60;0.60;;;20.20;39.10;;;;;;5027659;28;20442;-71
2021/04/06 02:48:47;;;;;;;1.95;0.60;;;20.20;39.10;;;;;;5021893;28;20448;-72
2021/04/06 02:51:14;;;;;;;1.13;0.70;;;20.20;39.10;;;;;;5025408;28;20413;-70
2021/04/06 02:53:40;;;;;;;1.33;0.70;;;20.20;39.10;;;;;;5026832;28;20837;-69
2021/04/06 02:56:07;;;;;;;2.05;0.70;;;20.20;39.10;;;;;;5026336;28;20924;-70
2021/04/06 02:58:37;;;;;;;1.85;0.73;;;20.30;39.10;;;;;;5026912;28;20419;-72
2021/04/06 03:01:11;;;;;;;0.93;0.67;;;20.20;39.10;;;;;;5020353;28;20504;-71
2021/04/06 03:03:37;;;;;;;1.55;0.80;;;20.20;38.90;;;;;;5033942;28;21698;-71
2021/04/06 03:06:05;;;;;;;1.58;0.70;;;20.20;39.00;;;;;;5027102;28;21136;-70
2021/04/06 03:08:31;;;;;;;1.85;0.82;;;20.30;38.90;;;;;;5020651;28;20487;-73
2021/04/06 03:10:58;;;;;;;1.13;0.80;;;20.30;38.90;;;;;;4996723;28;20481;-70
2021/04/06 03:13:25;;;;;;;1.48;0.77;;;20.30;38.90;;;;;;5017033;28;20417;-71
2021/04/06 03:15:51;;;;;;;1.50;0.90;;;20.30;38.60;;;;;;5036628;28;21491;-73
2021/04/06 03:18:17;;;;;;;2.50;0.90;;;20.40;38.20;;;;;;5026048;28;20901;-70
2021/04/06 03:20:43;;;;;;;1.98;0.80;;;20.40;38.20;;;;;;5025819;28;20411;-69
2021/04/06 03:23:10;;;;;;;2.40;0.95;;;20.50;38.30;;;;;;5024357;28;20423;-71
2021/04/06 03:25:37;;;;;;;0.60;0.60;;;20.50;38.30;;;;;;5026639;28;20975;-70
2021/04/06 03:28:05;;;;;;;0.60;0.60;;;20.60;38.40;;;;;;5023917;28;20911;-70
2021/04/06 03:30:35;;;;;;;2.50;0.82;;;20.60;38.40;;;;;;5023895;28;20494;-72
2021/04/06 03:33:01;;;;;;;0.80;0.50;;;20.50;38.30;;;;;;5025064;28;20966;-70
2021/04/06 03:35:29;;;;;;;1.50;0.80;;;20.50;38.30;;;;;;5023761;28;20411;-69
2021/04/06 03:37:56;;;;;;;0.93;0.80;;;20.50;38.30;;;;;;5015102;28;20864;-71
2021/04/06 03:40:23;;;;;;;1.40;0.73;;;20.50;38.30;;;;;;5032405;28;20428;-71
2021/04/06 03:42:49;;;;;;;0.82;0.80;;;20.50;38.30;;;;;;5015893;28;20413;-71
2021/04/06 03:45:16;;;;;;;2.33;0.95;;;20.50;38.30;;;;;;5022500;28;21069;-70
2021/04/06 03:47:53;;;;;;;1.13;0.70;;;20.50;38.30;;;;;;5030456;28;20428;-72
2021/04/06 03:50:32;;;;;;;1.35;0.70;;;20.50;38.30;;;;;;5024843;28;20649;-73
2021/04/06 03:53:01;;;;;;;1.67;0.80;;;20.50;38.30;;;;;;5019260;28;20486;-71
2021/04/06 03:55:28;;;;;;;1.00;0.80;;;20.50;38.30;;;;;;5030409;28;20417;-70
2021/04/06 03:58:03;;;;;;;3.28;0.95;;;20.50;38.30;;;;;;5026448;28;20937;-72
2021/04/06 04:00:29;;;;;;;3.25;0.85;;;20.40;38.20;;;;;;5030694;28;20428;-70
2021/04/06 04:02:57;;;;;;;2.58;1.00;;;20.40;38.40;;;;;;5020384;28;20400;-70
2021/04/06 04:05:23;;;;;;;2.53;0.80;;;20.40;38.70;;;;;;5022884;28;20423;-72
2021/04/06 04:07:49;;;;;;;1.80;1.00;;;20.30;38.60;;;;;;5026175;28;20421;-71
2021/04/06 04:10:16;;;;;;;2.67;0.90;;;20.30;38.80;;;;;;5024640;28;20413;-70
2021/04/06 04:12:43;;;;;;;1.65;0.77;;;20.30;38.90;;;;;;5023025;28;20425;-69
2021/04/06 04:15:10;;;;;;;1.67;0.90;;;20.30;38.90;;;;;;5026628;28;20408;-72
2021/04/06 04:17:36;;;;;;;1.20;1.00;;;20.30;38.80;;;;;;5030466;28;20435;-70
2021/04/06 04:20:05;;;;;;;2.05;0.90;;;20.30;38.50;;;;;;5024568;28;20434;-69
2021/04/06 04:22:32;;;;;;;1.33;0.73;;;20.40;38.50;;;;;;5007559;28;20445;-68
2021/04/06 04:24:58;;;;;;;2.08;0.82;;;20.40;38.30;;;;;;5026302;28;20403;-70
2021/04/06 04:27:24;;;;;;;2.83;1.30;;;20.40;38.30;;;;;;5029122;28;20955;-70
2021/04/06 04:29:51;;;;;;;2.90;1.08;;;20.50;38.30;;;;;;5024507;28;21244;-69
2021/04/06 04:32:17;;;;;;;2.90;1.00;;;20.50;38.30;;;;;;5022941;28;20471;-71
2021/04/06 04:34:43;;;;;;;3.35;1.10;;;20.50;38.30;;;;;;5030662;28;21194;-71
2021/04/06 04:37:09;;;;;;;2.53;1.25;;;20.50;38.50;;;;;;5025575;28;20825;-71
2021/04/06 04:39:35;;;;;;;3.78;1.13;;;20.40;38.70;;;;;;5024583;28;21063;-72
2021/04/06 04:42:01;;;;;;;2.92;1.10;;;20.40;38.80;;;;;;5017228;28;20420;-70
2021/04/06 04:44:28;;;;;;;3.20;1.00;;;20.40;38.50;;;;;;5025251;28;20426;-69
2021/04/06 04:46:55;;;;;;;4.10;1.30;;;20.40;38.50;;;;;;5022871;28;20421;-72
2021/04/06 04:49:21;;;;;;;3.63;1.40;;;20.40;38.20;;;;;;5022915;28;20425;-74
2021/04/06 04:51:47;;;;;;;2.58;1.10;;;20.40;38.20;;;;;;5019549;28;20487;-72
2021/04/06 04:54:13;;;;;;;2.35;1.00;;;20.40;38.20;;;;;;5031061;28;20448;-72
2021/04/06 04:56:39;;;;;;;2.43;1.20;;;20.40;38.30;;;;;;5023605;28;21377;-73
2021/04/06 04:59:05;;;;;;;5.22;1.40;;;20.40;38.30;;;;;;5026322;28;20546;-71
2021/04/06 05:01:31;;;;;;;1.80;1.30;;;20.40;38.30;;;;;;5014249;28;20425;-72
2021/04/06 05:03:58;;;;;;;3.05;1.10;;;20.40;38.20;;;;;;5026306;28;21125;-71
2021/04/06 05:06:24;;;;;;;6.55;1.60;;;20.40;38.30;;;;;;5025203;28;20756;-71
2021/04/06 05:08:51;;;;;;;5.70;1.75;;;20.40;38.30;;;;;;5020506;28;20409;-71
2021/04/06 05:11:17;;;;;;;5.53;1.27;;;20.40;38.20;;;;;;5034012;28;20434;-72
2021/04/06 05:13:43;;;;;;;5.00;1.65;;;20.50;38.30;;;;;;5020894;28;20859;-72
2021/04/06 05:16:09;;;;;;;4.82;1.52;;;20.50;38.30;;;;;;5025273;28;20978;-71
2021/04/06 05:18:35;;;;;;;2.83;1.55;;;20.50;38.30;;;;;;5028816;28;20436;-72
2021/04/06 05:21:02;;;;;;;4.47;1.35;;;20.50;38.30;;;;;;5023344;28;20418;-70
2021/04/06 05:23:28;;;;;;;4.30;1.57;;;20.60;38.40;;;;;;5020808;28;20514;-70
2021/04/06 05:25:55;;;;;;;2.55;1.60;;;20.50;38.30;;;;;;5025064;28;20419;-72
2021/04/06 05:28:21;;;;;;;4.10;1.60;;;20.50;38.30;;;;;;5025328;28;20421;-71
2021/04/06 05:30:47;;;;;;;5.28;1.80;;;20.50;38.30;;;;;;5020536;28;20427;-71
2021/04/06 05:33:13;;;;;;;5.18;1.48;;;20.50;38.30;;;;;;5024771;28;21098;-72
2021/04/06 05:35:39;;;;;;;5.05;1.90;;;20.40;38.20;;;;;;5028528;28;20413;-71
2021/04/06 05:38:06;;;;;;;6.75;1.88;;;20.40;37.80;;;;;;5028328;28;20426;-72
2021/04/06 05:40:32;;;;;;;3.50;1.67;;;20.40;38.00;;;;;;5029826;28;21199;-71
2021/04/06 05:42:59;;;;;;;3.60;1.67;;;20.40;37.70;;;;;;5007735;28;20432;-73
2021/04/06 05:45:25;;;;;;;6.93;1.98;;;20.40;37.70;;;;;;5024960;28;20768;-71
2021/04/06 05:47:52;;;;;;;6.13;1.80;;;20.40;37.40;;;;;;5015675;28;20439;-73
2021/04/06 05:50:18;;;;;;;3.55;1.90;;;20.40;37.90;;;;;;5026286;28;20421;-70
2021/04/06 05:52:44;;;;;;;8.57;2.33;;;20.40;38.10;;;;;;5011203;28;20411;-71
2021/04/06 05:55:12;;;;;;;3.13;1.60;;;20.40;38.20;;;;;;5030677;28;20424;-73
2021/04/06 05:57:38;;;;;;;5.38;1.80;;;20.40;38.20;;;;;;5024348;28;20431;-71
2021/04/06 06:00:05;;;;;;;4.90;1.75;;;20.40;38.20;;;;;;5018146;28;20432;-72
2021/04/06 06:02:31;;;;;;;3.13;1.70;;;20.40;38.20;;;;;;5021722;28;20436;-73
2021/04/06 06:04:57;;;;;;;4.45;1.88;;;20.40;38.20;;;;;;5024637;28;20405;-71
2021/04/06 06:07:24;;;;;;;3.27;1.20;;;20.50;38.30;;;;;;5027701;28;20443;-73
2021/04/06 06:09:50;;;;;;;4.33;1.73;;;20.50;38.30;;;;;;5023340;28;20553;-72
2021/04/06 06:12:18;;;;;;;4.65;1.60;;;20.50;38.30;;;;;;5024494;28;21477;-74
2021/04/06 06:14:46;;;;;;;4.68;1.80;;;20.50;38.30;;;;;;5023797;28;20509;-74
2021/04/06 06:17:16;;;;;;;3.80;1.33;;;20.50;38.30;;;;;;5027097;28;20420;-73
2021/04/06 06:19:42;;;;;;;3.50;1.50;;;20.50;38.30;;;;;;5023575;28;20455;-73
2021/04/06 06:22:15;;;;;;;6.82;1.80;;;20.50;38.30;;;;;;5020632;28;20413;-72
2021/04/06 06:24:44;;;;;;;6.10;1.38;;;20.50;38.30;;;;;;5024458;28;20419;-71
2021/04/06 06:27:34;;;;;;;4.13;1.80;;;20.50;38.30;;;;;;5023549;28;20477;-71
2021/04/06 06:30:25;;;;;;;2.55;1.30;;;20.60;38.40;;;;;;5020693;28;20406;-72
2021/04/06 06:33:13;;;;;;;3.67;1.58;;;20.60;38.40;;;;;;5011377;28;20407;-71
2021/04/06 06:35:39;;;;;;;4.25;1.48;;;20.70;38.40;;;;;;5026639;28;20846;-71
2021/04/06 06:38:18;;;;;;;2.70;1.40;;;20.70;38.50;;;;;;5030369;28;20426;-73
2021/04/06 06:40:45;;;;;;;4.15;1.77;;;20.70;38.50;;;;;;5027751;28;20427;-74
2021/04/06 06:43:13;;;;;;;4.72;1.63;;;20.60;38.40;;;;;;5023501;28;20422;-70
2021/04/06 06:45:39;;;;;;;5.20;1.70;;;20.60;38.40;;;;;;5011974;28;20415;-72
2021/04/06 06:48:06;;;;;;;3.05;1.33;;;20.60;38.40;;;;;;5037258;28;20422;-73
2021/04/06 06:50:33;;;;;;;3.97;1.52;;;20.50;38.30;;;;;;5025428;28;20419;-71
2021/04/06 06:52:59;;;;;;;4.30;1.45;;;20.50;38.30;;;;;;5021529;28;20447;-74
2021/04/06 06:55:26;;;;;;;4.60;1.30;;;20.50;38.30;;;;;;5022590;28;20421;-72
2021/04/06 06:58:01;;;;;;;3.45;1.00;;;20.50;38.50;;;;;;5015745;28;20440;-73
2021/04/06 07:00:28;;;;;;;3.35;1.52;;;20.50;38.40;;;;;;5026255;28;20426;-72
2021/04/06 07:02:54;;;;;;;2.47;1.27;;;20.50;38.60;;;;;;5018485;28;21961;-71
2021/04/06 07:05:22;;;;;;;2.70;1.50;;;20.50;38.70;;;;;;5023735;28;20548;-71
2021/04/06 07:07:56;;;;;;;4.40;1.60;;;20.50;38.70;;;;;;5010349;28;20937;-72
2021/04/06 07:10:23;;;;;;;4.25;1.63;;;20.50;38.90;;;;;;5028234;28;20419;-70
2021/04/06 07:12:53;;;;;;;3.50;1.50;;;20.50;39.00;;;;;;5022664;28;21583;-73
2021/04/06 07:15:19;;;;;;;4.35;1.17;;;20.50;39.00;;;;;;5016947;28;20436;-72
2021/04/06 07:17:46;;;;;;;3.60;1.50;;;20.50;38.90;;;;;;5023326;28;20491;-72
2021/04/06 07:20:16;;;;;;;4.53;1.90;;;20.50;38.70;;;;;;5017873;28;20419;-71
2021/04/06 07:22:42;;;;;;;4.07;1.65;;;20.60;38.70;;;;;;5010192;28;20430;-72
2021/04/06 07:25:09;;;;;;;2.00;1.10;;;20.60;38.40;;;;;;5022982;28;20417;-71
2021/04/06 07:27:36;;;;;;;3.27;1.10;;;20.60;38.40;;;;;;5024369;28;20415;-71
2021/04/06 07:30:02;;;;;;;3.42;1.45;;;20.60;38.40;;;;;;5022714;28;20427;-74
2021/04/06 07:32:28;;;;;;;2.35;1.20;;;20.60;38.40;;;;;;5019043;28;20478;-74
2021/04/06 07:34:55;;;;;;;2.28;1.17;;;20.60;38.60;;;;;;5029602;28;20878;-73
2021/04/06 07:37:21;;;;;;;3.45;1.65;;;20.50;38.80;;;;;;5021645;28;20417;-72
2021/04/06 07:39:49;;;;;;;3.47;1.70;;;20.50;39.10;;;;;;5018236;28;21214;-72
2021/04/06 07:42:15;;;;;;;3.63;1.10;;;20.50;39.20;;;;;;5014290;28;20423;-71
2021/04/06 07:44:41;;;;;;;4.30;0.95;;;20.50;39.20;;;;;;5026342;28;20502;-72
2021/04/06 07:47:07;;;;;;;3.15;0.98;;;20.50;39.20;;;;;;5018220;28;20424;-70
2021/04/06 07:49:37;;;;;;;2.43;1.17;;;20.50;39.20;;;;;;5018964;28;20447;-72
2021/04/06 07:52:05;;;;;;;3.60;1.30;;;20.40;39.20;;;;;;5003925;28;20464;-73
2021/04/06 07:54:47;;;;;;;1.75;0.77;;;20.40;39.20;;;;;;5030388;28;20497;-71
2021/04/06 07:57:13;;;;;;;3.00;1.10;;;20.40;39.30;;;;;;5022269;28;20403;-71
2021/04/06 07:59:52;;;;;;;2.30;1.20;;;20.40;39.30;;;;;;5023821;28;20534;-71
2021/04/06 08:02:31;;;;;;;2.70;1.30;;;20.50;39.40;;;;;;5003206;28;20433;-72
2021/04/06 08:04:59;;;;;;;1.98;1.20;;;20.50;39.30;;;;;;5010225;28;20952;-72
2021/04/06 08:07:32;;;;;;;2.53;1.20;;;20.50;39.10;;;;;;5018823;28;21097;-71
2021/04/06 08:09:59;;;;;;;5.15;1.33;;;20.50;39.10;;;;;;5014508;28;20911;-71
2021/04/06 08:12:26;;;;;;;2.45;1.13;;;20.50;39.10;;;;;;5019243;28;20484;-72
2021/04/06 08:14:53;;;;;;;3.15;1.30;;;20.50;39.20;;;;;;5020859;28;20923;-73
2021/04/06 08:17:41;;;;;;;1.48;1.05;;;20.50;39.20;;;;;;5021192;28;22245;-72
2021/04/06 08:20:19;;;;;;;2.00;0.90;;;20.50;39.10;;;;;;5023291;28;20906;-73
2021/04/06 08:22:48;;;;;;;3.00;1.15;;;20.50;39.00;;;;;;5017109;28;20429;-73
2021/04/06 08:25:43;;;;;;;1.77;1.02;;;20.50;39.00;;;;;;5021788;28;20505;-73
2021/04/06 08:28:38;;;;;;;1.48;1.20;;;20.50;39.10;;;;;;5018891;28;20500;-71
2021/04/06 08:31:18;;;;;;;3.33;1.00;;;20.50;39.10;;;;;;5016448;28;20577;-72
2021/04/06 08:33:44;;;;;;;1.80;1.02;;;20.50;38.90;;;;;;5016067;28;20430;-75
2021/04/06 08:36:11;;;;;;;2.40;1.00;;;20.60;38.80;;;;;;5019912;28;20425;-71
2021/04/06 08:38:44;;;;;;;2.30;1.10;;;20.60;38.50;;;;;;5025535;28;20417;-70
2021/04/06 08:41:13;;;;;;;2.95;1.40;;;20.70;38.50;;;;;;5019452;28;20417;-74
2021/04/06 08:43:41;;;;;;;2.72;1.10;;;20.70;38.50;;;;;;5024590;28;20745;-71
2021/04/06 08:46:08;;;;;;;2.30;1.08;;;20.70;38.50;;;;;;5021747;28;20422;-71
2021/04/06 08:48:51;;;;;;;3.05;1.20;;;20.70;38.50;;;;;;5022575;28;20427;-72
2021/04/06 08:51:19;;;;;;;2.25;1.10;;;20.70;38.50;;;;;;5018761;28;20486;-73
2021/04/06 08:53:46;;;;;;;4.20;1.25;;;20.70;38.50;;;;;;5017867;28;20420;-72
2021/04/06 08:56:13;;;;;;;1.20;1.00;;;20.80;38.60;;;;;;5014032;28;20600;-73
2021/04/06 08:58:39;;;;;;;1.58;1.00;;;20.80;38.50;;;;;;5014992;28;20435;-71
2021/04/06 09:01:05;;;;;;;2.00;0.90;;;20.80;38.60;;;;;;5022449;28;20428;-74
2021/04/06 09:03:31;;;;;;;2.97;1.00;;;20.80;38.60;;;;;;4984513;28;20995;-71
2021/04/06 09:06:06;;;;;;;1.13;0.70;;;20.80;38.60;;;;;;5014625;28;21110;-71
2021/04/06 09:08:47;;;;;;;2.50;1.40;;;20.70;38.50;;;;;;5028292;28;20418;-70
2021/04/06 09:11:14;;;;;;;3.10;1.10;;;20.70;38.60;;;;;;5002263;28;20458;-71
2021/04/06 09:13:40;;;;;;;1.60;0.80;;;20.70;38.50;;;;;;5019564;28;20426;-72
2021/04/06 09:16:07;;;;;;;1.50;0.90;;;20.70;38.80;;;;;;5017100;28;20835;-72
2021/04/06 09:18:36;;;;;;;1.73;0.60;;;20.70;38.90;;;;;;5015667;28;20416;-71
2021/04/06 09:21:06;;;;;;;2.38;0.93;;;20.70;38.90;;;;;;5019581;28;20845;-74
2021/04/06 09:23:32;;;;;;;0.80;0.80;;;20.70;38.90;;;;;;5021006;28;20425;-72
2021/04/06 09:25:59;;;;;;;1.45;1.00;;;20.70;38.90;;;;;;5018196;28;20416;-71
2021/04/06 09:28:25;;;;;;;1.25;0.80;;;20.70;38.90;;;;;;5022619;28;20425;-73
2021/04/06 09:30:51;;;;;;;2.00;0.80;;;20.70;39.80;;;;;;5020184;28;20417;-74
2021/04/06 09:33:19;;;;;;;2.10;1.00;;;20.70;39.00;;;;;;5020879;28;20423;-73
2021/04/06 09:35:46;;;;;;;2.72;1.13;;;20.60;38.90;;;;;;5016009;28;21041;-72
2021/04/06 09:38:13;;;;;;;1.90;1.00;;;20.60;38.90;;;;;;5018308;28;20433;-72
2021/04/06 09:40:41;;;;;;;1.60;1.10;;;20.60;39.00;;;;;;5008898;28;20446;-72
2021/04/06 09:43:07;;;;;;;1.40;0.80;;;20.60;39.10;;;;;;5015363;28;20410;-73
2021/04/06 09:45:34;;;;;;;2.35;0.90;;;20.60;39.20;;;;;;5028452;28;20413;-69
2021/04/06 09:48:00;;;;;;;1.40;0.70;;;20.70;39.20;;;;;;5029863;28;20499;-71
2021/04/06 09:50:27;;;;;;;1.98;1.00;;;20.70;39.10;;;;;;5021103;28;20418;-70
2021/04/06 09:52:53;;;;;;;2.70;0.68;;;20.70;39.10;;;;;;5016051;28;20423;-72
2021/04/06 09:55:20;;;;;;;2.40;0.70;;;20.70;38.70;;;;;;5021363;28;20418;-73
2021/04/06 09:57:48;;;;;;;1.70;0.60;;;20.80;38.80;;;;;;5021443;28;20430;-71
2021/04/06 10:00:17;;;;;;;2.10;0.90;;;20.80;38.70;;;;;;5005970;28;20935;-72
2021/04/06 10:02:45;;;;;;;1.67;0.85;;;20.70;38.70;;;;;;4993450;28;20419;-72
2021/04/06 10:05:21;;;;;;;1.50;0.90;;;20.70;39.00;;;;;;5028476;28;20474;-71
2021/04/06 10:07:48;;;;;;;1.95;0.90;;;20.70;38.90;;;;;;5017101;28;20427;-70
2021/04/06 10:10:18;;;;;;;2.10;0.90;;;20.60;39.10;;;;;;5020537;28;21096;-71
2021/04/06 10:12:44;;;;;;;1.70;0.80;;;20.60;39.10;;;;;;5010887;28;20423;-76
2021/04/06 10:15:12;;;;;;;1.35;0.75;;;20.70;39.00;;;;;;5030643;28;20415;-72
2021/04/06 10:17:39;;;;;;;3.10;1.07;;;20.70;39.00;;;;;;5011253;28;20474;-72
2021/04/06 10:20:07;;;;;;;2.00;1.20;;;20.70;38.90;;;;;;5031624;28;20421;-73
2021/04/06 10:22:39;;;;;;;1.15;0.88;;;20.70;38.70;;;;;;5013788;28;21013;-74
2021/04/06 10:25:05;;;;;;;1.58;1.00;;;20.80;38.80;;;;;;5031677;28;20426;-74
2021/04/06 10:27:37;;;;;;;1.10;0.60;;;20.80;38.60;;;;;;5025263;28;20419;-71
2021/04/06 10:30:05;;;;;;;1.45;1.00;;;20.80;38.60;;;;;;5005894;28;20446;-73
2021/04/06 10:32:32;;;;;;;4.28;0.95;;;20.80;38.60;;;;;;5023317;28;20422;-73
2021/04/06 10:35:02;;;;;;;2.35;1.27;;;20.80;38.60;;;;;;5023203;28;20436;-71
2021/04/06 10:37:41;;;;;;;2.42;1.00;;;20.80;38.60;;;;;;5019414;28;20473;-74
2021/04/06 10:40:24;;;;;;;1.80;1.30;;;20.80;38.60;;;;;;5018959;28;20419;-70
2021/04/06 10:42:50;;;;;;;3.03;1.17;;;20.80;38.80;;;;;;5029265;28;20429;-73
2021/04/06 10:45:17;;;;;;;2.30;0.80;;;20.70;39.00;;;;;;5027758;28;21008;-73
2021/04/06 10:47:44;;;;;;;1.98;1.20;;;20.70;39.10;;;;;;5025066;28;20437;-72
2021/04/06 10:50:12;;;;;;;1.48;0.80;;;20.70;39.10;;;;;;5020503;28;20413;-74
2021/04/06 10:52:38;;;;;;;1.23;0.93;;;20.60;39.20;;;;;;5035996;28;20406;-75
2021/04/06 10:55:06;;;;;;;1.40;0.98;;;20.60;39.40;;;;;;5053432;28;20524;-76
2021/04/06 10:57:33;;;;;;;2.67;0.90;;;20.60;39.40;;;;;;5038757;28;20483;-70
2021/04/06 11:00:15;;;;;;;1.30;0.80;;;20.60;39.30;;;;;;5034580;28;20424;-70
2021/04/06 11:02:41;;;;;;;2.00;1.00;;;20.60;39.30;;;;;;5014419;28;21998;-71
2021/04/06 11:05:09;;;;;;;1.77;0.80;;;20.60;39.40;;;;;;5023225;28;20423;-71
2021/04/06 11:07:35;;;;;;;2.65;0.80;;;20.70;39.30;;;;;;5002928;28;20910;-71
2021/04/06 11:10:05;;;;;;;2.80;1.00;;;20.70;39.20;;;;;;5014217;28;21365;-74
2021/04/06 11:12:31;;;;;;;2.92;0.65;;;20.70;39.10;;;;;;5009437;28;20438;-71
2021/04/06 11:14:57;;;;;;;0.82;0.77;;;20.70;39.10;;;;;;5021881;28;20436;-71
2021/04/06 11:17:23;;;;;;;1.25;0.75;;;20.70;39.10;;;;;;5017226;28;20434;-71
2021/04/06 11:19:49;;;;;;;2.90;0.97;;;20.70;39.20;;;;;;5016249;28;21494;-74
2021/04/06 11:22:17;;;;;;;1.73;0.90;;;20.70;39.20;;;;;;5011759;28;20921;-74
2021/04/06 11:24:45;;;;;;;1.20;0.90;;;20.60;39.30;;;;;;5019647;28;20487;-74
2021/04/06 11:27:13;;;;;;;2.10;0.80;;;20.60;39.40;;;;;;5018834;28;20414;-73
2021/04/06 11:29:40;;;;;;;2.10;0.90;;;20.60;39.40;;;;;;5000550;28;20438;-71
2021/04/06 11:32:07;;;;;;;1.37;0.80;;;20.60;39.30;;;;;;5017250;28;20476;-73
2021/04/06 11:34:34;;;;;;;1.45;0.90;;;20.60;39.30;;;;;;5017132;28;20428;-72
2021/04/06 11:37:00;;;;;;;2.20;1.00;;;20.60;39.40;;;;;;5024403;28;20434;-72
2021/04/06 11:39:28;;;;;;;2.22;1.00;;;20.60;39.40;;;;;;5019617;28;20433;-71
2021/04/06 11:41:55;;;;;;;2.50;1.30;;;20.60;39.40;;;;;;5020831;28;20794;-73
2021/04/06 11:44:22;;;;;;;1.83;1.60;;;20.60;39.40;;;;;;5021033;28;20411;-75
2021/04/06 11:46:48;;;;;;;3.60;2.43;;;20.60;39.30;;;;;;5013950;28;20413;-72
2021/04/06 11:49:15;;;;;;;3.03;2.55;;;20.60;39.30;;;;;;5020808;28;20478;-72
2021/04/06 11:51:41;;;;;;;5.45;2.60;;;20.50;39.10;;;;;;5007653;28;20415;-72
2021/04/06 11:54:08;;;;;;;4.05;2.08;;;20.50;40.00;;;;;;5021795;28;20913;-72
2021/04/06 11:56:34;;;;;;;4.75;1.98;;;20.50;39.30;;;;;;5017444;28;21414;-73
2021/04/06 11:59:01;;;;;;;2.70;2.07;;;20.50;38.90;;;;;;5021619;28;20487;-72
2021/04/06 12:01:28;;;;;;;3.25;2.03;;;20.50;38.90;;;;;;5015763;28;20426;-71
2021/04/06 12:03:55;;;;;;;4.18;2.00;;;20.50;38.50;;;;;;4991581;28;20414;-74
2021/04/06 12:06:21;;;;;;;4.65;1.90;;;20.60;38.40;;;;;;5022881;28;20421;-73
2021/04/06 12:08:47;;;;;;;4.13;1.70;;;20.60;38.40;;;;;;5022642;28;20409;-72
2021/04/06 12:11:13;;;;;;;3.60;1.70;;;20.60;38.40;;;;;;5019934;28;20404;-75
2021/04/06 12:13:39;;;;;;;3.40;1.67;;;20.60;38.40;;;;;;5019242;28;20531;-75
2021/04/06 12:16:07;;;;;;;3.47;1.83;;;20.60;38.40;;;;;;5021276;28;20421;-72
2021/04/06 12:18:33;;;;;;;1.80;1.30;;;20.60;38.40;;;;;;5023751;28;20414;-73
2021/04/06 12:20:59;;;;;;;3.80;1.60;;;20.50;38.30;;;;;;5004804;28;20431;-72
2021/04/06 12:23:25;;;;;;;3.88;1.77;;;20.50;38.30;;;;;;5004773;28;20417;-71
2021/04/06 12:25:53;;;;;;;2.97;1.58;;;20.50;38.30;;;;;;5021776;28;20411;-71
2021/04/06 12:28:19;;;;;;;2.83;1.40;;;20.60;38.40;;;;;;5015994;28;20415;-73
2021/04/06 12:30:45;;;;;;;2.50;1.10;;;20.50;37.90;;;;;;5016518;28;20427;-74
2021/04/06 12:33:12;;;;;;;3.20;1.10;;;20.60;38.40;;;;;;5010613;28;20425;-71
2021/04/06 12:35:38;;;;;;;2.97;1.17;;;20.60;38.40;;;;;;5024000;28;20434;-76
2021/04/06 12:38:05;;;;;;;2.97;1.10;;;20.60;38.40;;;;;;5006904;28;20435;-73
2021/04/06 12:40:32;;;;;;;5.00;1.40;;;20.60;38.40;;;;;;5009942;28;20484;-72
2021/04/06 12:42:58;;;;;;;4.65;1.30;;;20.60;38.40;;;;;;5016130;28;20839;-70
2021/04/06 12:45:24;;;;;;;3.40;1.48;;;20.60;38.40;;;;;;5021578;28;20446;-72
2021/04/06 12:47:50;;;;;;;2.95;1.50;;;20.70;38.40;;;;;;5016454;28;20412;-73
2021/04/06 12:50:17;;;;;;;3.47;1.30;;;20.70;38.40;;;;;;5004856;28;20436;-75
2021/04/06 12:52:43;;;;;;;1.95;1.30;;;20.80;38.60;;;;;;5003129;28;20483;-72